sensor_id;sensor_type;location;lat;lon;timestamp;pressure;altitude;pressure_sealevel;temperature;humidity
25498;BME280;13406;53.380;7.226;2023-06-26T00:01:44;101444.88;;;21.86;100.00
25498;BME280;13406;53.380;7.226;2023-06-26T00:04:09;101506.97;;;22.23;100.00
25498;BME280;13406;53.380;7.226;2023-06-26T00:06:39;101515.56;;;22.10;100.00
25498;BME280;13406;53.380;7.226;2023-06-26T00:09:05;101408.25;;;21.50;100.00
25498;BME280;13406;53.380;7.226;2023-06-26T00:11:30;101507.69;;;22.14;100.00
25498;BME280;13406;53.380;7.226;2023-06-26T00:13:59;101362.19;;;21.05;100.00
25498;BME280;13406;53.380;7.226;2023-06-26T00:16:25;101509.41;;;21.93;100.00
25498;BME280;13406;53.380;7.226;2023-06-26T00:18:52;101513.16;;;21.86;100.00
25498;BME280;13406;53.380;7.226;2023-06-26T00:21:17;101515.13;;;21.91;100.00
25498;BME280;13406;53.380;7.226;2023-06-26T00:23:44;101498.69;;;21.86;100.00
25498;BME280;13406;53.380;7.226;2023-06-26T00:26:09;101445.13;;;21.53;100.00
25498;BME280;13406;53.380;7.226;2023-06-26T00:28:35;101497.50;;;21.77;100.00
25498;BME280;13406;53.380;7.226;2023-06-26T00:31:00;101508.56;;;21.92;100.00
25498;BME280;13406;53.380;7.226;2023-06-26T00:33:26;101479.38;;;21.65;100.00
25498;BME280;13406;53.380;7.226;2023-06-26T00:35:51;101499.44;;;21.76;100.00
25498;BME280;13406;53.380;7.226;2023-06-26T00:38:17;101312.81;;;20.79;100.00
25498;BME280;13406;53.380;7.226;2023-06-26T00:40:42;101413.91;;;21.43;100.00
25498;BME280;13406;53.380;7.226;2023-06-26T00:43:08;101452.59;;;21.62;100.00
25498;BME280;13406;53.380;7.226;2023-06-26T00:45:34;101298.50;;;20.67;100.00
25498;BME280;13406;53.380;7.226;2023-06-26T00:47:59;101357.03;;;21.08;100.00
25498;BME280;13406;53.380;7.226;2023-06-26T00:50:25;101433.38;;;21.52;100.00
25498;BME280;13406;53.380;7.226;2023-06-26T00:52:51;101405.72;;;21.43;100.00
25498;BME280;13406;53.380;7.226;2023-06-26T00:55:17;101441.22;;;21.71;100.00
25498;BME280;13406;53.380;7.226;2023-06-26T00:57:43;101409.13;;;21.56;100.00
25498;BME280;13406;53.380;7.226;2023-06-26T01:00:11;101357.72;;;21.20;100.00
25498;BME280;13406;53.380;7.226;2023-06-26T01:02:37;101371.03;;;21.39;100.00
25498;BME280;13406;53.380;7.226;2023-06-26T01:05:05;101385.50;;;21.39;100.00
25498;BME280;13406;53.380;7.226;2023-06-26T01:07:32;101364.91;;;21.32;100.00
25498;BME280;13406;53.380;7.226;2023-06-26T01:10:03;101410.47;;;21.53;100.00
25498;BME280;13406;53.380;7.226;2023-06-26T01:12:29;101344.84;;;21.16;100.00
25498;BME280;13406;53.380;7.226;2023-06-26T01:14:55;101391.06;;;21.50;100.00
25498;BME280;13406;53.380;7.226;2023-06-26T01:17:21;101374.19;;;21.53;100.00
25498;BME280;13406;53.380;7.226;2023-06-26T01:19:47;101420.19;;;21.71;100.00
25498;BME280;13406;53.380;7.226;2023-06-26T01:27:36;101362.91;;;21.44;100.00
25498;BME280;13406;53.380;7.226;2023-06-26T01:30:03;101417.69;;;21.70;100.00
25498;BME280;13406;53.380;7.226;2023-06-26T01:32:30;101392.88;;;21.71;100.00
25498;BME280;13406;53.380;7.226;2023-06-26T01:34:57;101390.41;;;21.70;100.00
25498;BME280;13406;53.380;7.226;2023-06-26T01:37:23;101384.13;;;21.69;100.00
25498;BME280;13406;53.380;7.226;2023-06-26T01:39:48;101367.44;;;21.65;100.00
25498;BME280;13406;53.380;7.226;2023-06-26T01:42:14;101376.38;;;21.56;100.00
25498;BME280;13406;53.380;7.226;2023-06-26T01:44:44;101216.75;;;20.67;100.00
25498;BME280;13406;53.380;7.226;2023-06-26T01:47:12;101386.22;;;21.57;100.00
25498;BME280;13406;53.380;7.226;2023-06-26T01:50:04;101300.72;;;20.92;100.00
25498;BME280;13406;53.380;7.226;2023-06-26T01:52:41;101381.78;;;21.51;100.00
25498;BME280;13406;53.380;7.226;2023-06-26T01:57:54;101377.41;;;21.50;100.00
25498;BME280;13406;53.380;7.226;2023-06-26T02:00:21;101370.09;;;21.55;100.00
25498;BME280;13406;53.380;7.226;2023-06-26T02:02:47;101356.34;;;21.45;100.00
25498;BME280;13406;53.380;7.226;2023-06-26T02:05:13;101233.41;;;20.70;100.00
25498;BME280;13406;53.380;7.226;2023-06-26T02:07:39;101354.91;;;21.70;100.00
25498;BME280;13406;53.380;7.226;2023-06-26T02:10:05;101348.56;;;21.59;100.00
25498;BME280;13406;53.380;7.226;2023-06-26T02:12:30;101348.34;;;21.65;100.00
25498;BME280;13406;53.380;7.226;2023-06-26T02:14:56;101306.66;;;21.43;100.00
25498;BME280;13406;53.380;7.226;2023-06-26T02:17:21;101347.78;;;21.63;100.00
25498;BME280;13406;53.380;7.226;2023-06-26T02:19:47;101333.13;;;21.75;100.00
25498;BME280;13406;53.380;7.226;2023-06-26T02:22:16;101305.59;;;21.44;100.00
25498;BME280;13406;53.380;7.226;2023-06-26T02:24:43;101322.66;;;21.61;100.00
25498;BME280;13406;53.380;7.226;2023-06-26T02:27:09;101263.09;;;21.26;100.00
25498;BME280;13406;53.380;7.226;2023-06-26T02:29:34;101302.25;;;21.37;100.00
25498;BME280;13406;53.380;7.226;2023-06-26T02:31:59;101201.09;;;20.84;100.00
25498;BME280;13406;53.380;7.226;2023-06-26T02:34:25;101137.13;;;20.65;100.00
25498;BME280;13406;53.380;7.226;2023-06-26T02:36:50;101315.91;;;21.74;100.00
25498;BME280;13406;53.380;7.226;2023-06-26T02:39:19;101251.66;;;21.24;100.00
25498;BME280;13406;53.380;7.226;2023-06-26T02:41:45;101204.44;;;20.91;100.00
25498;BME280;13406;53.380;7.226;2023-06-26T02:44:10;101208.59;;;20.99;100.00
25498;BME280;13406;53.380;7.226;2023-06-26T02:46:37;101308.78;;;21.68;100.00
25498;BME280;13406;53.380;7.226;2023-06-26T02:49:03;101305.44;;;21.61;100.00
25498;BME280;13406;53.380;7.226;2023-06-26T02:51:28;101228.91;;;21.13;100.00
25498;BME280;13406;53.380;7.226;2023-06-26T02:53:53;101257.56;;;21.16;100.00
25498;BME280;13406;53.380;7.226;2023-06-26T02:56:19;101242.72;;;21.02;100.00
25498;BME280;13406;53.380;7.226;2023-06-26T02:58:44;101194.56;;;20.85;100.00
25498;BME280;13406;53.380;7.226;2023-06-26T03:01:10;101300.38;;;21.42;100.00
25498;BME280;13406;53.380;7.226;2023-06-26T03:03:35;101300.16;;;21.49;100.00
25498;BME280;13406;53.380;7.226;2023-06-26T03:06:06;101237.81;;;21.04;100.00
25498;BME280;13406;53.380;7.226;2023-06-26T03:08:32;101265.47;;;21.17;100.00
25498;BME280;13406;53.380;7.226;2023-06-26T03:10:58;101302.03;;;21.43;100.00
25498;BME280;13406;53.380;7.226;2023-06-26T03:13:23;101303.81;;;21.33;100.00
25498;BME280;13406;53.380;7.226;2023-06-26T03:15:49;101210.22;;;20.68;100.00
25498;BME280;13406;53.380;7.226;2023-06-26T03:18:14;101135.00;;;20.18;100.00
25498;BME280;13406;53.380;7.226;2023-06-26T03:20:40;101324.22;;;21.25;100.00
25498;BME280;13406;53.380;7.226;2023-06-26T03:23:05;101321.53;;;21.30;100.00
25498;BME280;13406;53.380;7.226;2023-06-26T03:25:30;101216.97;;;20.60;100.00
25498;BME280;13406;53.380;7.226;2023-06-26T03:27:56;101263.94;;;20.99;100.00
25498;BME280;13406;53.380;7.226;2023-06-26T03:30:21;101317.94;;;21.25;100.00
25498;BME280;13406;53.380;7.226;2023-06-26T03:32:47;101321.13;;;21.16;100.00
25498;BME280;13406;53.380;7.226;2023-06-26T03:35:12;101274.69;;;20.57;100.00
25498;BME280;13406;53.380;7.226;2023-06-26T03:37:37;101258.50;;;20.72;100.00
25498;BME280;13406;53.380;7.226;2023-06-26T03:40:03;101242.81;;;20.58;100.00
25498;BME280;13406;53.380;7.226;2023-06-26T03:42:30;101333.31;;;21.09;100.00
25498;BME280;13406;53.380;7.226;2023-06-26T03:44:55;101251.81;;;20.58;100.00
25498;BME280;13406;53.380;7.226;2023-06-26T03:47:20;101189.03;;;20.26;100.00
25498;BME280;13406;53.380;7.226;2023-06-26T03:49:46;101291.97;;;20.68;100.00
25498;BME280;13406;53.380;7.226;2023-06-26T03:52:11;101322.97;;;20.84;100.00
25498;BME280;13406;53.380;7.226;2023-06-26T03:54:37;101341.72;;;21.02;100.00
25498;BME280;13406;53.380;7.226;2023-06-26T03:57:02;101342.88;;;21.11;100.00
25498;BME280;13406;53.380;7.226;2023-06-26T03:59:28;101230.84;;;20.37;100.00
25498;BME280;13406;53.380;7.226;2023-06-26T04:01:53;101344.19;;;20.82;100.00
25498;BME280;13406;53.380;7.226;2023-06-26T04:04:18;101319.06;;;20.74;100.00
25498;BME280;13406;53.380;7.226;2023-06-26T04:06:44;101297.41;;;20.68;100.00
25498;BME280;13406;53.380;7.226;2023-06-26T04:09:09;101204.09;;;20.12;100.00
25498;BME280;13406;53.380;7.226;2023-06-26T04:11:35;101361.00;;;21.22;100.00
25498;BME280;13406;53.380;7.226;2023-06-26T04:14:00;101296.59;;;20.89;100.00
25498;BME280;13406;53.380;7.226;2023-06-26T04:16:25;101358.56;;;21.48;100.00
25498;BME280;13406;53.380;7.226;2023-06-26T04:18:52;101322.94;;;21.33;100.00
25498;BME280;13406;53.380;7.226;2023-06-26T04:21:17;101155.31;;;20.32;100.00
25498;BME280;13406;53.380;7.226;2023-06-26T04:23:43;101261.38;;;21.15;100.00
25498;BME280;13406;53.380;7.226;2023-06-26T04:26:09;101343.19;;;21.69;100.00
25498;BME280;13406;53.380;7.226;2023-06-26T04:28:39;101284.34;;;21.51;100.00
25498;BME280;13406;53.380;7.226;2023-06-26T04:31:05;101338.72;;;21.90;100.00
25498;BME280;13406;53.380;7.226;2023-06-26T04:33:30;101336.75;;;21.85;100.00
25498;BME280;13406;53.380;7.226;2023-06-26T04:35:56;101302.31;;;21.79;100.00
25498;BME280;13406;53.380;7.226;2023-06-26T04:38:22;101256.19;;;21.46;100.00
25498;BME280;13406;53.380;7.226;2023-06-26T04:40:48;101290.25;;;21.70;100.00
25498;BME280;13406;53.380;7.226;2023-06-26T04:43:14;101309.69;;;21.84;100.00
25498;BME280;13406;53.380;7.226;2023-06-26T04:45:40;101318.22;;;21.87;100.00
25498;BME280;13406;53.380;7.226;2023-06-26T04:48:05;101316.53;;;21.86;100.00
25498;BME280;13406;53.380;7.226;2023-06-26T04:50:34;101286.16;;;21.73;100.00
25498;BME280;13406;53.380;7.226;2023-06-26T04:53:00;101315.53;;;21.98;100.00
25498;BME280;13406;53.380;7.226;2023-06-26T04:55:26;101301.84;;;21.93;100.00
25498;BME280;13406;53.380;7.226;2023-06-26T04:57:52;101205.16;;;21.41;100.00
25498;BME280;13406;53.380;7.226;2023-06-26T05:00:18;101300.00;;;22.03;100.00
25498;BME280;13406;53.380;7.226;2023-06-26T05:02:44;101253.72;;;21.81;100.00
25498;BME280;13406;53.380;7.226;2023-06-26T05:05:09;101246.59;;;21.80;100.00
25498;BME280;13406;53.380;7.226;2023-06-26T05:07:35;101255.72;;;21.96;100.00
25498;BME280;13406;53.380;7.226;2023-06-26T05:10:01;101208.13;;;21.87;100.00
25498;BME280;13406;53.380;7.226;2023-06-26T05:12:26;101247.84;;;22.10;100.00
25498;BME280;13406;53.380;7.226;2023-06-26T05:14:52;101179.41;;;21.74;100.00
25498;BME280;13406;53.380;7.226;2023-06-26T05:17:17;101160.44;;;21.52;100.00
25498;BME280;13406;53.380;7.226;2023-06-26T05:19:42;101264.13;;;22.37;100.00
25498;BME280;13406;53.380;7.226;2023-06-26T05:22:08;101218.16;;;22.19;100.00
25498;BME280;13406;53.380;7.226;2023-06-26T05:24:38;101209.28;;;21.96;100.00
25498;BME280;13406;53.380;7.226;2023-06-26T05:27:04;101244.34;;;22.15;100.00
25498;BME280;13406;53.380;7.226;2023-06-26T05:29:32;101242.13;;;22.11;100.00
25498;BME280;13406;53.380;7.226;2023-06-26T05:31:59;101237.47;;;22.02;100.00
25498;BME280;13406;53.380;7.226;2023-06-26T05:34:25;101267.09;;;22.25;100.00
25498;BME280;13406;53.380;7.226;2023-06-26T05:36:55;101153.09;;;21.53;100.00
25498;BME280;13406;53.380;7.226;2023-06-26T05:39:23;101149.25;;;21.49;100.00
25498;BME280;13406;53.380;7.226;2023-06-26T05:41:48;101264.88;;;22.17;100.00
25498;BME280;13406;53.380;7.226;2023-06-26T05:44:14;101206.22;;;21.82;100.00
25498;BME280;13406;53.380;7.226;2023-06-26T05:46:39;101199.59;;;21.68;100.00
25498;BME280;13406;53.380;7.226;2023-06-26T05:49:05;101265.31;;;21.99;100.00
25498;BME280;13406;53.380;7.226;2023-06-26T05:51:30;101319.34;;;22.34;100.00
25498;BME280;13406;53.380;7.226;2023-06-26T05:53:56;101319.03;;;22.30;100.00
25498;BME280;13406;53.380;7.226;2023-06-26T05:56:22;101226.84;;;21.63;100.00
25498;BME280;13406;53.380;7.226;2023-06-26T05:58:48;101342.47;;;22.21;100.00
25498;BME280;13406;53.380;7.226;2023-06-26T06:03:39;101326.78;;;21.69;100.00
25498;BME280;13406;53.380;7.226;2023-06-26T06:06:05;101352.16;;;21.64;100.00
25498;BME280;13406;53.380;7.226;2023-06-26T06:08:30;101135.28;;;19.94;100.00
25498;BME280;13406;53.380;7.226;2023-06-26T06:10:59;101384.06;;;21.10;100.00
25498;BME280;13406;53.380;7.226;2023-06-26T06:13:25;101478.53;;;21.38;100.00
25498;BME280;13406;53.380;7.226;2023-06-26T06:15:50;101480.34;;;21.10;100.00
25498;BME280;13406;53.380;7.226;2023-06-26T06:18:16;101480.03;;;21.07;100.00
25498;BME280;13406;53.380;7.226;2023-06-26T06:20:41;101502.34;;;20.82;100.00
25498;BME280;13406;53.380;7.226;2023-06-26T06:23:06;101429.97;;;20.01;100.00
25498;BME280;13406;53.380;7.226;2023-06-26T06:25:32;101452.47;;;20.47;100.00
25498;BME280;13406;53.380;7.226;2023-06-26T06:27:57;101497.97;;;20.81;100.00
25498;BME280;13406;53.380;7.226;2023-06-26T06:30:23;101550.75;;;20.74;100.00
25498;BME280;13406;53.380;7.226;2023-06-26T06:32:48;101524.31;;;20.24;100.00
25498;BME280;13406;53.380;7.226;2023-06-26T06:35:18;101594.97;;;20.48;100.00
25498;BME280;13406;53.380;7.226;2023-06-26T06:37:43;101638.66;;;20.82;100.00
25498;BME280;13406;53.380;7.226;2023-06-26T06:40:09;101643.19;;;20.76;100.00
25498;BME280;13406;53.380;7.226;2023-06-26T06:42:35;101604.06;;;20.37;100.00
25498;BME280;13406;53.380;7.226;2023-06-26T06:45:02;101632.53;;;20.29;100.00
25498;BME280;13406;53.380;7.226;2023-06-26T06:47:28;101610.25;;;20.03;100.00
25498;BME280;13406;53.380;7.226;2023-06-26T06:49:53;101637.72;;;20.30;100.00
25498;BME280;13406;53.380;7.226;2023-06-26T06:52:19;101644.34;;;20.63;100.00
25498;BME280;13406;53.380;7.226;2023-06-26T06:54:55;101628.66;;;20.70;100.00
25498;BME280;13406;53.380;7.226;2023-06-26T06:57:24;101546.13;;;19.96;100.00
25498;BME280;13406;53.380;7.226;2023-06-26T06:59:49;101613.63;;;20.39;100.00
25498;BME280;13406;53.380;7.226;2023-06-26T07:02:18;101635.19;;;20.41;100.00
25498;BME280;13406;53.380;7.226;2023-06-26T07:04:43;101666.50;;;20.67;100.00
25498;BME280;13406;53.380;7.226;2023-06-26T07:07:09;101410.56;;;19.35;100.00
25498;BME280;13406;53.380;7.226;2023-06-26T07:09:35;101547.81;;;20.30;100.00
25498;BME280;13406;53.380;7.226;2023-06-26T07:12:01;101644.19;;;20.87;100.00
25498;BME280;13406;53.380;7.226;2023-06-26T07:14:28;101637.41;;;20.89;100.00
25498;BME280;13406;53.380;7.226;2023-06-26T07:16:53;101631.47;;;21.09;100.00
25498;BME280;13406;53.380;7.226;2023-06-26T07:19:19;101581.97;;;20.84;100.00
25498;BME280;13406;53.380;7.226;2023-06-26T07:21:44;101471.41;;;20.20;100.00
25498;BME280;13406;53.380;7.226;2023-06-26T07:24:11;101458.28;;;20.00;100.00
25498;BME280;13406;53.380;7.226;2023-06-26T07:26:37;101621.28;;;20.88;100.00
25498;BME280;13406;53.380;7.226;2023-06-26T07:29:02;101439.09;;;19.78;100.00
25498;BME280;13406;53.380;7.226;2023-06-26T07:31:28;101546.19;;;20.29;100.00
25498;BME280;13406;53.380;7.226;2023-06-26T07:33:53;101565.34;;;20.35;100.00
25498;BME280;13406;53.380;7.226;2023-06-26T07:36:18;101618.25;;;20.84;100.00
25498;BME280;13406;53.380;7.226;2023-06-26T07:38:44;101596.84;;;20.76;100.00
25498;BME280;13406;53.380;7.226;2023-06-26T07:41:09;101556.84;;;20.82;100.00
25498;BME280;13406;53.380;7.226;2023-06-26T07:43:35;101553.81;;;20.78;100.00
25498;BME280;13406;53.380;7.226;2023-06-26T07:46:00;101445.88;;;19.93;100.00
25498;BME280;13406;53.380;7.226;2023-06-26T07:48:25;101475.13;;;20.14;100.00
25498;BME280;13406;53.380;7.226;2023-06-26T07:50:51;101587.75;;;20.87;100.00
25498;BME280;13406;53.380;7.226;2023-06-26T07:53:17;101579.38;;;21.11;100.00
25498;BME280;13406;53.380;7.226;2023-06-26T07:55:43;101573.56;;;21.24;100.00
25498;BME280;13406;53.380;7.226;2023-06-26T07:58:08;101510.63;;;20.70;100.00
25498;BME280;13406;53.380;7.226;2023-06-26T08:00:34;101442.72;;;20.51;100.00
25498;BME280;13406;53.380;7.226;2023-06-26T08:02:59;101468.94;;;20.52;100.00
25498;BME280;13406;53.380;7.226;2023-06-26T08:05:25;101406.84;;;20.21;100.00
25498;BME280;13406;53.380;7.226;2023-06-26T08:07:50;101551.69;;;21.02;100.00
25498;BME280;13406;53.380;7.226;2023-06-26T08:10:16;101558.47;;;20.99;100.00
25498;BME280;13406;53.380;7.226;2023-06-26T08:12:42;101557.63;;;21.16;100.00
25498;BME280;13406;53.380;7.226;2023-06-26T08:15:10;101558.31;;;21.28;100.00
25498;BME280;13406;53.380;7.226;2023-06-26T08:17:36;101519.09;;;20.90;100.00
25498;BME280;13406;53.380;7.226;2023-06-26T08:20:02;101512.41;;;20.81;100.00
25498;BME280;13406;53.380;7.226;2023-06-26T08:22:28;101517.38;;;20.67;100.00
25498;BME280;13406;53.380;7.226;2023-06-26T08:24:53;101539.47;;;21.05;100.00
25498;BME280;13406;53.380;7.226;2023-06-26T08:27:18;101556.53;;;21.17;100.00
25498;BME280;13406;53.380;7.226;2023-06-26T08:29:44;101325.78;;;19.72;100.00
25498;BME280;13406;53.380;7.226;2023-06-26T08:32:09;101547.34;;;21.23;100.00
25498;BME280;13406;53.380;7.226;2023-06-26T08:34:35;101541.13;;;21.28;100.00
25498;BME280;13406;53.380;7.226;2023-06-26T08:37:00;101512.91;;;20.78;100.00
25498;BME280;13406;53.380;7.226;2023-06-26T08:39:25;101531.41;;;20.93;100.00
25498;BME280;13406;53.380;7.226;2023-06-26T08:41:51;101564.13;;;20.93;100.00
25498;BME280;13406;53.380;7.226;2023-06-26T08:44:16;101565.50;;;21.12;100.00
25498;BME280;13406;53.380;7.226;2023-06-26T08:46:43;101514.41;;;20.52;100.00
25498;BME280;13406;53.380;7.226;2023-06-26T08:49:18;101581.72;;;20.85;100.00
25498;BME280;13406;53.380;7.226;2023-06-26T08:51:56;101513.97;;;20.77;100.00
25498;BME280;13406;53.380;7.226;2023-06-26T08:54:27;101569.84;;;21.13;100.00
25498;BME280;13406;53.380;7.226;2023-06-26T08:56:54;101548.59;;;20.76;100.00
25498;BME280;13406;53.380;7.226;2023-06-26T08:59:21;101508.72;;;20.53;100.00
25498;BME280;13406;53.380;7.226;2023-06-26T09:01:47;101599.56;;;21.32;100.00
25498;BME280;13406;53.380;7.226;2023-06-26T09:04:12;101482.72;;;20.46;100.00
25498;BME280;13406;53.380;7.226;2023-06-26T09:06:39;101594.50;;;21.18;100.00
25498;BME280;13406;53.380;7.226;2023-06-26T09:09:04;101609.25;;;20.84;100.00
25498;BME280;13406;53.380;7.226;2023-06-26T09:11:30;101557.78;;;20.70;100.00
25498;BME280;13406;53.380;7.226;2023-06-26T09:13:55;101423.75;;;19.72;100.00
25498;BME280;13406;53.380;7.226;2023-06-26T09:16:25;101621.97;;;21.12;100.00
25498;BME280;13406;53.380;7.226;2023-06-26T09:18:55;101604.78;;;21.33;100.00
25498;BME280;13406;53.380;7.226;2023-06-26T09:21:21;101606.84;;;21.26;100.00
25498;BME280;13406;53.380;7.226;2023-06-26T09:23:46;101464.72;;;20.11;100.00
25498;BME280;13406;53.380;7.226;2023-06-26T09:26:14;101632.69;;;21.02;100.00
25498;BME280;13406;53.380;7.226;2023-06-26T09:28:42;101612.81;;;21.23;100.00
25498;BME280;13406;53.380;7.226;2023-06-26T09:31:08;101418.06;;;20.07;100.00
25498;BME280;13406;53.380;7.226;2023-06-26T09:33:36;101618.56;;;21.05;100.00
25498;BME280;13406;53.380;7.226;2023-06-26T09:36:18;101615.53;;;21.23;100.00
25498;BME280;13406;53.380;7.226;2023-06-26T09:38:44;101605.88;;;21.32;100.00
25498;BME280;13406;53.380;7.226;2023-06-26T09:41:10;101445.25;;;20.19;100.00
25498;BME280;13406;53.380;7.226;2023-06-26T09:43:45;101620.94;;;21.57;100.00
25498;BME280;13406;53.380;7.226;2023-06-26T09:46:24;101522.53;;;20.64;100.00
25498;BME280;13406;53.380;7.226;2023-06-26T09:48:50;101617.31;;;21.12;100.00
25498;BME280;13406;53.380;7.226;2023-06-26T09:51:16;101536.69;;;20.83;100.00
25498;BME280;13406;53.380;7.226;2023-06-26T09:53:42;101501.81;;;20.63;100.00
25498;BME280;13406;53.380;7.226;2023-06-26T09:56:15;101569.97;;;21.02;100.00
25498;BME280;13406;53.380;7.226;2023-06-26T09:58:43;101597.03;;;21.42;100.00
25498;BME280;13406;53.380;7.226;2023-06-26T10:01:09;101640.63;;;21.59;100.00
25498;BME280;13406;53.380;7.226;2023-06-26T10:03:35;101641.34;;;21.32;100.00
25498;BME280;13406;53.380;7.226;2023-06-26T10:06:02;101648.94;;;21.47;100.00
25498;BME280;13406;53.380;7.226;2023-06-26T10:08:28;101570.81;;;20.51;100.00
25498;BME280;13406;53.380;7.226;2023-06-26T10:10:56;101501.44;;;20.08;100.00
25498;BME280;13406;53.380;7.226;2023-06-26T10:13:26;101668.16;;;21.02;100.00
25498;BME280;13406;53.380;7.226;2023-06-26T10:15:53;101654.59;;;21.07;100.00
25498;BME280;13406;53.380;7.226;2023-06-26T10:18:21;101638.97;;;21.19;100.00
25498;BME280;13406;53.380;7.226;2023-06-26T10:20:49;101635.41;;;21.18;100.00
25498;BME280;13406;53.380;7.226;2023-06-26T10:23:18;101626.28;;;21.47;100.00
25498;BME280;13406;53.380;7.226;2023-06-26T10:25:46;101508.00;;;20.58;100.00
25498;BME280;13406;53.380;7.226;2023-06-26T10:28:14;101650.97;;;21.57;100.00
25498;BME280;13406;53.380;7.226;2023-06-26T10:30:42;101576.94;;;20.75;100.00
25498;BME280;13406;53.380;7.226;2023-06-26T10:33:09;101664.34;;;21.03;100.00
25498;BME280;13406;53.380;7.226;2023-06-26T10:35:42;101670.69;;;21.25;100.00
25498;BME280;13406;53.380;7.226;2023-06-26T10:38:08;101670.28;;;21.33;100.00
25498;BME280;13406;53.380;7.226;2023-06-26T10:40:42;101658.06;;;21.58;100.00
25498;BME280;13406;53.380;7.226;2023-06-26T10:43:09;101648.56;;;21.38;100.00
25498;BME280;13406;53.380;7.226;2023-06-26T10:45:35;101608.31;;;21.12;100.00
25498;BME280;13406;53.380;7.226;2023-06-26T10:48:04;101656.72;;;21.55;100.00
25498;BME280;13406;53.380;7.226;2023-06-26T10:50:30;101675.34;;;21.63;100.00
25498;BME280;13406;53.380;7.226;2023-06-26T10:55:37;101646.31;;;21.18;100.00
25498;BME280;13406;53.380;7.226;2023-06-26T10:58:02;101690.38;;;21.27;100.00
25498;BME280;13406;53.380;7.226;2023-06-26T11:00:28;101516.94;;;20.42;100.00
25498;BME280;13406;53.380;7.226;2023-06-26T11:02:54;101602.69;;;21.02;100.00
25498;BME280;13406;53.380;7.226;2023-06-26T11:05:27;101615.84;;;21.05;100.00
25498;BME280;13406;53.380;7.226;2023-06-26T11:08:22;101703.78;;;21.46;100.00
25498;BME280;13406;53.380;7.226;2023-06-26T11:11:07;101669.13;;;21.29;100.00
25498;BME280;13406;53.380;7.226;2023-06-26T11:13:34;101510.69;;;20.24;100.00
25498;BME280;13406;53.380;7.226;2023-06-26T11:16:01;101675.91;;;21.27;100.00
25498;BME280;13406;53.380;7.226;2023-06-26T11:18:27;101714.81;;;21.73;100.00
25498;BME280;13406;53.380;7.226;2023-06-26T11:20:53;101639.19;;;21.17;100.00
25498;BME280;13406;53.380;7.226;2023-06-26T11:23:22;101707.06;;;21.64;100.00
25498;BME280;13406;53.380;7.226;2023-06-26T11:25:49;101671.22;;;21.39;100.00
25498;BME280;13406;53.380;7.226;2023-06-26T11:28:14;101569.88;;;20.96;100.00
25498;BME280;13406;53.380;7.226;2023-06-26T11:30:40;101608.78;;;21.09;100.00
25498;BME280;13406;53.380;7.226;2023-06-26T11:33:09;101676.13;;;21.59;100.00
25498;BME280;13406;53.380;7.226;2023-06-26T11:35:36;101689.38;;;21.33;100.00
25498;BME280;13406;53.380;7.226;2023-06-26T11:38:03;101682.78;;;20.95;100.00
25498;BME280;13406;53.380;7.226;2023-06-26T11:40:33;101694.16;;;21.60;100.00
25498;BME280;13406;53.380;7.226;2023-06-26T11:42:59;101700.59;;;21.71;100.00
25498;BME280;13406;53.380;7.226;2023-06-26T11:45:27;101701.25;;;21.61;100.00
25498;BME280;13406;53.380;7.226;2023-06-26T11:47:55;101557.66;;;20.99;100.00
25498;BME280;13406;53.380;7.226;2023-06-26T11:50:22;101637.75;;;21.10;100.00
25498;BME280;13406;53.380;7.226;2023-06-26T11:52:53;101714.94;;;21.44;100.00
25498;BME280;13406;53.380;7.226;2023-06-26T11:55:19;101606.66;;;20.94;100.00
25498;BME280;13406;53.380;7.226;2023-06-26T11:57:55;101611.88;;;20.95;100.00
25498;BME280;13406;53.380;7.226;2023-06-26T12:00:22;101698.88;;;21.64;100.00
25498;BME280;13406;53.380;7.226;2023-06-26T12:02:48;101588.91;;;20.91;100.00
25498;BME280;13406;53.380;7.226;2023-06-26T12:05:15;101681.09;;;21.28;100.00
25498;BME280;13406;53.380;7.226;2023-06-26T12:07:42;101716.41;;;21.91;100.00
25498;BME280;13406;53.380;7.226;2023-06-26T12:10:10;101711.47;;;21.87;100.00
25498;BME280;13406;53.380;7.226;2023-06-26T12:12:37;101713.50;;;21.97;100.00
25498;BME280;13406;53.380;7.226;2023-06-26T12:15:03;101586.13;;;21.25;100.00
25498;BME280;13406;53.380;7.226;2023-06-26T12:17:29;101660.75;;;21.53;100.00
25498;BME280;13406;53.380;7.226;2023-06-26T12:19:54;101725.13;;;21.87;100.00
25498;BME280;13406;53.380;7.226;2023-06-26T12:22:20;101711.31;;;21.55;100.00
25498;BME280;13406;53.380;7.226;2023-06-26T12:24:46;101607.84;;;20.98;100.00
25498;BME280;13406;53.380;7.226;2023-06-26T12:27:13;101582.13;;;20.94;100.00
25498;BME280;13406;53.380;7.226;2023-06-26T12:29:45;101644.19;;;21.59;100.00
25498;BME280;13406;53.380;7.226;2023-06-26T12:32:10;101697.53;;;21.67;100.00
25498;BME280;13406;53.380;7.226;2023-06-26T12:34:38;101715.47;;;22.02;100.00
25498;BME280;13406;53.380;7.226;2023-06-26T12:37:11;101682.66;;;21.58;100.00
25498;BME280;13406;53.380;7.226;2023-06-26T12:42:16;101697.28;;;21.69;100.00
25498;BME280;13406;53.380;7.226;2023-06-26T12:44:42;101695.75;;;21.56;100.00
25498;BME280;13406;53.380;7.226;2023-06-26T12:47:07;101722.78;;;21.57;100.00
25498;BME280;13406;53.380;7.226;2023-06-26T12:49:34;101748.44;;;21.78;100.00
25498;BME280;13406;53.380;7.226;2023-06-26T12:52:02;101698.56;;;21.27;100.00
25498;BME280;13406;53.380;7.226;2023-06-26T12:54:28;101749.84;;;21.59;100.00